sensor_id;sensor_type;location;lat;lon;timestamp;pressure;altitude;pressure_sealevel;temperature;humidity
35226;BME280;21813;49.686;21.766;2023-05-08T00:01:31;99283.25;;;4.08;100.00
35226;BME280;21813;49.686;21.766;2023-05-08T00:03:57;99275.63;;;4.05;100.00
35226;BME280;21813;49.686;21.766;2023-05-08T00:06:23;99273.19;;;4.02;100.00
35226;BME280;21813;49.686;21.766;2023-05-08T00:08:48;99263.88;;;3.97;100.00
35226;BME280;21813;49.686;21.766;2023-05-08T00:11:16;99257.97;;;3.94;100.00
35226;BME280;21813;49.686;21.766;2023-05-08T00:13:43;99289.38;;;4.05;100.00
35226;BME280;21813;49.686;21.766;2023-05-08T00:16:24;99252.34;;;3.84;100.00
35226;BME280;21813;49.686;21.766;2023-05-08T00:18:50;99276.00;;;3.95;100.00
35226;BME280;21813;49.686;21.766;2023-05-08T00:21:21;99261.66;;;3.88;100.00
35226;BME280;21813;49.686;21.766;2023-05-08T00:23:47;99282.56;;;4.03;100.00
35226;BME280;21813;49.686;21.766;2023-05-08T00:26:14;99289.41;;;4.04;100.00
35226;BME280;21813;49.686;21.766;2023-05-08T00:28:40;99289.50;;;4.02;100.00
35226;BME280;21813;49.686;21.766;2023-05-08T00:31:09;99258.41;;;3.83;100.00
35226;BME280;21813;49.686;21.766;2023-05-08T00:33:35;99287.72;;;4.03;100.00
35226;BME280;21813;49.686;21.766;2023-05-08T00:36:03;99288.00;;;3.96;100.00
35226;BME280;21813;49.686;21.766;2023-05-08T00:38:31;99295.47;;;4.03;100.00
35226;BME280;21813;49.686;21.766;2023-05-08T00:40:59;99254.88;;;3.86;100.00
35226;BME280;21813;49.686;21.766;2023-05-08T00:43:26;99273.47;;;3.94;100.00
35226;BME280;21813;49.686;21.766;2023-05-08T00:45:54;99283.41;;;4.03;100.00
35226;BME280;21813;49.686;21.766;2023-05-08T00:48:21;99262.66;;;3.84;100.00
35226;BME280;21813;49.686;21.766;2023-05-08T00:50:52;99280.91;;;4.02;100.00
35226;BME280;21813;49.686;21.766;2023-05-08T00:53:20;99276.34;;;3.86;100.00
35226;BME280;21813;49.686;21.766;2023-05-08T00:55:50;99268.78;;;3.82;100.00
35226;BME280;21813;49.686;21.766;2023-05-08T00:58:21;99280.31;;;3.95;100.00
35226;BME280;21813;49.686;21.766;2023-05-08T01:00:49;99288.75;;;3.98;100.00
35226;BME280;21813;49.686;21.766;2023-05-08T01:03:16;99259.41;;;3.79;100.00
35226;BME280;21813;49.686;21.766;2023-05-08T01:05:47;99286.53;;;3.89;100.00
35226;BME280;21813;49.686;21.766;2023-05-08T01:08:14;99311.06;;;3.99;100.00
35226;BME280;21813;49.686;21.766;2023-05-08T01:11:12;99309.34;;;4.00;100.00
35226;BME280;21813;49.686;21.766;2023-05-08T01:16:44;99280.97;;;3.78;100.00
35226;BME280;21813;49.686;21.766;2023-05-08T01:33:31;99290.13;;;3.85;100.00
35226;BME280;21813;49.686;21.766;2023-05-08T01:36:05;99296.78;;;3.91;100.00
35226;BME280;21813;49.686;21.766;2023-05-08T01:38:46;99295.94;;;3.90;100.00
35226;BME280;21813;49.686;21.766;2023-05-08T01:41:24;99300.97;;;3.93;100.00
35226;BME280;21813;49.686;21.766;2023-05-08T01:46:31;99291.31;;;3.77;100.00
35226;BME280;21813;49.686;21.766;2023-05-08T01:49:02;99314.69;;;3.95;100.00
35226;BME280;21813;49.686;21.766;2023-05-08T01:52:06;99308.00;;;3.90;100.00
35226;BME280;21813;49.686;21.766;2023-05-08T01:54:58;99290.94;;;3.87;100.00
35226;BME280;21813;49.686;21.766;2023-05-08T01:57:28;99301.34;;;3.84;100.00
35226;BME280;21813;49.686;21.766;2023-05-08T01:59:56;99281.06;;;3.75;100.00
35226;BME280;21813;49.686;21.766;2023-05-08T02:02:31;99289.53;;;3.79;100.00
35226;BME280;21813;49.686;21.766;2023-05-08T02:05:08;99297.03;;;3.85;100.00
35226;BME280;21813;49.686;21.766;2023-05-08T02:07:53;99299.00;;;3.78;100.00
35226;BME280;21813;49.686;21.766;2023-05-08T02:10:25;99313.25;;;3.88;100.00
35226;BME280;21813;49.686;21.766;2023-05-08T02:12:53;99334.50;;;3.93;100.00
35226;BME280;21813;49.686;21.766;2023-05-08T02:15:23;99332.84;;;3.92;100.00
35226;BME280;21813;49.686;21.766;2023-05-08T02:17:49;99327.69;;;3.92;100.00
35226;BME280;21813;49.686;21.766;2023-05-08T02:20:20;99327.69;;;3.92;100.00
35226;BME280;21813;49.686;21.766;2023-05-08T02:22:49;99330.28;;;3.92;100.00
35226;BME280;21813;49.686;21.766;2023-05-08T02:25:19;99294.97;;;3.71;100.00
35226;BME280;21813;49.686;21.766;2023-05-08T02:27:48;99309.53;;;3.72;100.00
35226;BME280;21813;49.686;21.766;2023-05-08T02:30:20;99324.44;;;3.87;100.00
35226;BME280;21813;49.686;21.766;2023-05-08T02:32:48;99335.34;;;3.94;100.00
35226;BME280;21813;49.686;21.766;2023-05-08T02:35:17;99333.56;;;3.96;100.00
35226;BME280;21813;49.686;21.766;2023-05-08T02:37:45;99327.91;;;3.86;100.00
35226;BME280;21813;49.686;21.766;2023-05-08T02:40:13;99314.22;;;3.84;100.00
35226;BME280;21813;49.686;21.766;2023-05-08T02:42:39;99344.72;;;3.96;100.00
35226;BME280;21813;49.686;21.766;2023-05-08T02:45:07;99342.16;;;3.96;100.00
35226;BME280;21813;49.686;21.766;2023-05-08T02:47:42;99341.34;;;3.94;100.00
35226;BME280;21813;49.686;21.766;2023-05-08T02:53:27;99338.94;;;3.90;100.00
35226;BME280;21813;49.686;21.766;2023-05-08T02:56:10;99336.44;;;3.88;100.00
35226;BME280;21813;49.686;21.766;2023-05-08T02:58:45;99343.94;;;3.94;100.00
35226;BME280;21813;49.686;21.766;2023-05-08T03:01:26;99342.25;;;3.93;100.00
35226;BME280;21813;49.686;21.766;2023-05-08T03:04:07;99327.13;;;3.84;100.00
35226;BME280;21813;49.686;21.766;2023-05-08T03:06:45;99338.84;;;3.93;100.00
35226;BME280;21813;49.686;21.766;2023-05-08T03:09:19;99321.25;;;3.81;100.00
35226;BME280;21813;49.686;21.766;2023-05-08T03:11:48;99323.66;;;3.85;100.00
35226;BME280;21813;49.686;21.766;2023-05-08T03:14:18;99343.94;;;3.94;100.00
35226;BME280;21813;49.686;21.766;2023-05-08T03:16:49;99336.31;;;3.91;100.00
35226;BME280;21813;49.686;21.766;2023-05-08T03:19:24;99327.03;;;3.87;100.00
35226;BME280;21813;49.686;21.766;2023-05-08T03:21:53;99336.31;;;3.91;100.00
35226;BME280;21813;49.686;21.766;2023-05-08T03:24:21;99362.53;;;4.03;100.00
35226;BME280;21813;49.686;21.766;2023-05-08T03:26:51;99354.91;;;3.99;100.00
35226;BME280;21813;49.686;21.766;2023-05-08T03:29:17;99347.31;;;3.96;100.00
35226;BME280;21813;49.686;21.766;2023-05-08T03:31:45;99360.13;;;3.98;100.00
35226;BME280;21813;49.686;21.766;2023-05-08T03:34:12;99354.03;;;4.00;100.00
35226;BME280;21813;49.686;21.766;2023-05-08T03:36:39;99342.31;;;3.92;100.00
35226;BME280;21813;49.686;21.766;2023-05-08T03:39:05;99345.78;;;3.91;100.00
35226;BME280;21813;49.686;21.766;2023-05-08T03:41:33;99351.63;;;3.96;100.00
35226;BME280;21813;49.686;21.766;2023-05-08T03:44:01;99359.34;;;3.96;100.00
35226;BME280;21813;49.686;21.766;2023-05-08T03:46:32;99357.50;;;3.99;100.00
35226;BME280;21813;49.686;21.766;2023-05-08T03:48:59;99356.72;;;3.97;100.00
35226;BME280;21813;49.686;21.766;2023-05-08T03:51:28;99342.41;;;3.89;100.00
35226;BME280;21813;49.686;21.766;2023-05-08T03:53:55;99353.47;;;3.92;100.00
35226;BME280;21813;49.686;21.766;2023-05-08T03:56:22;99355.81;;;3.98;100.00
35226;BME280;21813;49.686;21.766;2023-05-08T03:59:15;99361.63;;;4.04;100.00
35226;BME280;21813;49.686;21.766;2023-05-08T04:01:49;99351.66;;;3.94;100.00
35226;BME280;21813;49.686;21.766;2023-05-08T04:04:37;99368.50;;;4.05;100.00
35226;BME280;21813;49.686;21.766;2023-05-08T04:13:11;99365.25;;;3.99;100.00
35226;BME280;21813;49.686;21.766;2023-05-08T04:15:38;99358.72;;;3.89;100.00
35226;BME280;21813;49.686;21.766;2023-05-08T04:18:12;99363.00;;;3.90;100.00
35226;BME280;21813;49.686;21.766;2023-05-08T04:20:40;99377.25;;;4.00;100.00
35226;BME280;21813;49.686;21.766;2023-05-08T04:23:08;99374.97;;;3.93;100.00
35226;BME280;21813;49.686;21.766;2023-05-08T04:25:37;99377.38;;;3.97;100.00
35226;BME280;21813;49.686;21.766;2023-05-08T04:28:07;99381.78;;;3.94;100.00
35226;BME280;21813;49.686;21.766;2023-05-08T04:30:34;99370.75;;;3.90;100.00
35226;BME280;21813;49.686;21.766;2023-05-08T04:33:03;99375.91;;;3.90;100.00
35226;BME280;21813;49.686;21.766;2023-05-08T04:35:29;99385.19;;;3.94;100.00
35226;BME280;21813;49.686;21.766;2023-05-08T04:37:57;99392.00;;;3.97;100.00
35226;BME280;21813;49.686;21.766;2023-05-08T04:40:23;99381.78;;;3.94;100.00
35226;BME280;21813;49.686;21.766;2023-05-08T04:42:50;99388.56;;;3.96;100.00
35226;BME280;21813;49.686;21.766;2023-05-08T04:45:16;99397.16;;;3.97;100.00
35226;BME280;21813;49.686;21.766;2023-05-08T04:47:42;99383.69;;;3.89;100.00
35226;BME280;21813;49.686;21.766;2023-05-08T04:50:09;99371.19;;;3.78;100.00
35226;BME280;21813;49.686;21.766;2023-05-08T04:52:36;99399.09;;;3.90;100.00
35226;BME280;21813;49.686;21.766;2023-05-08T04:55:03;99411.88;;;3.93;100.00
35226;BME280;21813;49.686;21.766;2023-05-08T04:57:36;99415.13;;;3.98;100.00
35226;BME280;21813;49.686;21.766;2023-05-08T05:00:02;99408.31;;;3.97;100.00
35226;BME280;21813;49.686;21.766;2023-05-08T05:02:28;99390.72;;;3.84;100.00
35226;BME280;21813;49.686;21.766;2023-05-08T05:04:54;99381.38;;;3.81;100.00
35226;BME280;21813;49.686;21.766;2023-05-08T05:07:23;99398.34;;;3.88;100.00
35226;BME280;21813;49.686;21.766;2023-05-08T05:09:49;99396.75;;;3.84;100.00
35226;BME280;21813;49.686;21.766;2023-05-08T05:12:15;99406.72;;;3.93;100.00
35226;BME280;21813;49.686;21.766;2023-05-08T05:14:41;99417.63;;;4.02;100.00
35226;BME280;21813;49.686;21.766;2023-05-08T05:17:07;99420.19;;;4.02;100.00
35226;BME280;21813;49.686;21.766;2023-05-08T05:19:33;99418.50;;;4.00;100.00
35226;BME280;21813;49.686;21.766;2023-05-08T05:22:00;99421.22;;;3.97;100.00
35226;BME280;21813;49.686;21.766;2023-05-08T05:24:26;99421.97;;;3.99;100.00
35226;BME280;21813;49.686;21.766;2023-05-08T05:26:58;99400.22;;;3.83;100.00
35226;BME280;21813;49.686;21.766;2023-05-08T05:29:24;99419.53;;;3.96;100.00
35226;BME280;21813;49.686;21.766;2023-05-08T05:31:51;99399.28;;;3.86;100.00
35226;BME280;21813;49.686;21.766;2023-05-08T05:34:17;99394.28;;;3.81;100.00
35226;BME280;21813;49.686;21.766;2023-05-08T05:36:44;99431.53;;;3.97;100.00
35226;BME280;21813;49.686;21.766;2023-05-08T05:39:10;99449.34;;;4.04;100.00
35226;BME280;21813;49.686;21.766;2023-05-08T05:41:38;99408.75;;;3.85;100.00
35226;BME280;21813;49.686;21.766;2023-05-08T05:44:08;99440.06;;;3.98;100.00
35226;BME280;21813;49.686;21.766;2023-05-08T05:46:37;99419.78;;;3.89;100.00
35226;BME280;21813;49.686;21.766;2023-05-08T05:49:02;99442.50;;;4.03;100.00
35226;BME280;21813;49.686;21.766;2023-05-08T05:51:30;99441.72;;;4.00;100.00
35226;BME280;21813;49.686;21.766;2023-05-08T05:53:55;99452.75;;;4.04;100.00
35226;BME280;21813;49.686;21.766;2023-05-08T05:56:21;99451.03;;;4.05;100.00
35226;BME280;21813;49.686;21.766;2023-05-08T05:58:47;99454.50;;;4.04;100.00
35226;BME280;21813;49.686;21.766;2023-05-08T06:01:14;99463.72;;;4.11;100.00
35226;BME280;21813;49.686;21.766;2023-05-08T06:03:39;99463.88;;;4.06;100.00
35226;BME280;21813;49.686;21.766;2023-05-08T06:06:07;99451.16;;;4.02;100.00
35226;BME280;21813;49.686;21.766;2023-05-08T06:08:33;99466.28;;;4.11;100.00
35226;BME280;21813;49.686;21.766;2023-05-08T06:10:59;99471.38;;;4.12;100.00
35226;BME280;21813;49.686;21.766;2023-05-08T06:13:25;99462.03;;;4.10;100.00
35226;BME280;21813;49.686;21.766;2023-05-08T06:15:53;99466.06;;;4.17;100.00
35226;BME280;21813;49.686;21.766;2023-05-08T06:18:21;99468.53;;;4.20;100.00
35226;BME280;21813;49.686;21.766;2023-05-08T06:20:47;99459.91;;;4.21;100.00
35226;BME280;21813;49.686;21.766;2023-05-08T06:23:12;99456.56;;;4.17;100.00
35226;BME280;21813;49.686;21.766;2023-05-08T06:25:39;99464.81;;;4.27;100.00
35226;BME280;21813;49.686;21.766;2023-05-08T06:28:05;99472.56;;;4.27;100.00
35226;BME280;21813;49.686;21.766;2023-05-08T06:30:33;99474.13;;;4.31;100.00
35226;BME280;21813;49.686;21.766;2023-05-08T06:32:59;99475.81;;;4.32;100.00
35226;BME280;21813;49.686;21.766;2023-05-08T06:35:26;99461.34;;;4.28;100.00
35226;BME280;21813;49.686;21.766;2023-05-08T06:37:51;99470.66;;;4.32;100.00
35226;BME280;21813;49.686;21.766;2023-05-08T06:40:18;99491.81;;;4.41;100.00
35226;BME280;21813;49.686;21.766;2023-05-08T06:42:43;99483.22;;;4.41;100.00
35226;BME280;21813;49.686;21.766;2023-05-08T06:45:11;99488.16;;;4.47;100.00
35226;BME280;21813;49.686;21.766;2023-05-08T06:47:36;99461.97;;;4.34;100.00
35226;BME280;21813;49.686;21.766;2023-05-08T06:50:03;99479.56;;;4.47;100.00
35226;BME280;21813;49.686;21.766;2023-05-08T06:52:30;99490.63;;;4.50;100.00
35226;BME280;21813;49.686;21.766;2023-05-08T06:54:57;99485.47;;;4.50;100.00
35226;BME280;21813;49.686;21.766;2023-05-08T06:57:22;99485.69;;;4.44;100.00
35226;BME280;21813;49.686;21.766;2023-05-08T06:59:52;99484.69;;;4.48;100.00
35226;BME280;21813;49.686;21.766;2023-05-08T07:02:18;99491.34;;;4.54;100.00
35226;BME280;21813;49.686;21.766;2023-05-08T07:04:47;99490.28;;;4.59;100.00
35226;BME280;21813;49.686;21.766;2023-05-08T07:07:12;99473.44;;;4.49;100.00
35226;BME280;21813;49.686;21.766;2023-05-08T07:09:47;99488.50;;;4.61;100.00
35226;BME280;21813;49.686;21.766;2023-05-08T07:12:15;99474.28;;;4.50;100.00
35226;BME280;21813;49.686;21.766;2023-05-08T07:14:43;99479.41;;;4.51;100.00
35226;BME280;21813;49.686;21.766;2023-05-08T07:17:08;99483.69;;;4.52;100.00
35226;BME280;21813;49.686;21.766;2023-05-08T07:19:35;99481.00;;;4.54;100.00
35226;BME280;21813;49.686;21.766;2023-05-08T07:22:01;99485.25;;;4.56;100.00
35226;BME280;21813;49.686;21.766;2023-05-08T07:24:27;99511.38;;;4.70;100.00
35226;BME280;21813;49.686;21.766;2023-05-08T07:26:53;99502.91;;;4.67;100.00
35226;BME280;21813;49.686;21.766;2023-05-08T07:29:20;99500.97;;;4.72;100.00
35226;BME280;21813;49.686;21.766;2023-05-08T07:31:45;99506.97;;;4.72;100.00
35226;BME280;21813;49.686;21.766;2023-05-08T07:34:13;99512.06;;;4.75;100.00
35226;BME280;21813;49.686;21.766;2023-05-08T07:36:39;99521.28;;;4.81;100.00
35226;BME280;21813;49.686;21.766;2023-05-08T07:39:05;99511.06;;;4.78;100.00
35226;BME280;21813;49.686;21.766;2023-05-08T07:41:30;99517.81;;;4.82;100.00
35226;BME280;21813;49.686;21.766;2023-05-08T07:43:57;99525.38;;;4.86;100.00
35226;BME280;21813;49.686;21.766;2023-05-08T07:46:22;99520.34;;;4.83;100.00
35226;BME280;21813;49.686;21.766;2023-05-08T07:48:48;99521.06;;;4.87;100.00
35226;BME280;21813;49.686;21.766;2023-05-08T07:51:14;99522.63;;;4.91;100.00
35226;BME280;21813;49.686;21.766;2023-05-08T07:53:40;99516.59;;;4.90;100.00
35226;BME280;21813;49.686;21.766;2023-05-08T07:56:06;99515.91;;;4.87;100.00
35226;BME280;21813;49.686;21.766;2023-05-08T07:58:32;99530.19;;;4.96;100.00
35226;BME280;21813;49.686;21.766;2023-05-08T08:00:57;99525.16;;;4.93;100.00
35226;BME280;21813;49.686;21.766;2023-05-08T08:03:24;99532.69;;;4.99;100.00
35226;BME280;21813;49.686;21.766;2023-05-08T08:05:49;99534.41;;;4.98;100.00
35226;BME280;21813;49.686;21.766;2023-05-08T08:08:16;99529.44;;;4.94;100.00
35226;BME280;21813;49.686;21.766;2023-05-08T08:10:42;99534.28;;;5.01;100.00
35226;BME280;21813;49.686;21.766;2023-05-08T08:13:08;99530.84;;;5.01;100.00
35226;BME280;21813;49.686;21.766;2023-05-08T08:15:35;99541.63;;;5.12;100.00
35226;BME280;21813;49.686;21.766;2023-05-08T08:18:02;99534.81;;;5.09;100.00
35226;BME280;21813;49.686;21.766;2023-05-08T08:20:28;99527.91;;;5.10;100.00
35226;BME280;21813;49.686;21.766;2023-05-08T08:22:55;99541.41;;;5.18;100.00
35226;BME280;21813;49.686;21.766;2023-05-08T08:25:22;99534.53;;;5.17;100.00
35226;BME280;21813;49.686;21.766;2023-05-08T08:27:50;99552.09;;;5.30;100.00
35226;BME280;21813;49.686;21.766;2023-05-08T08:30:15;99546.78;;;5.33;100.00
35226;BME280;21813;49.686;21.766;2023-05-08T08:32:42;99531.47;;;5.29;100.00
35226;BME280;21813;49.686;21.766;2023-05-08T08:35:08;99548.16;;;5.42;100.00
35226;BME280;21813;49.686;21.766;2023-05-08T08:37:34;99545.41;;;5.47;100.00
35226;BME280;21813;49.686;21.766;2023-05-08T08:40:00;99545.09;;;5.54;100.00
35226;BME280;21813;49.686;21.766;2023-05-08T08:42:27;99548.34;;;5.59;100.00
35226;BME280;21813;49.686;21.766;2023-05-08T08:44:54;99541.09;;;5.67;100.00
35226;BME280;21813;49.686;21.766;2023-05-08T08:47:27;99543.41;;;5.73;100.00
35226;BME280;21813;49.686;21.766;2023-05-08T08:49:54;99542.28;;;5.81;100.00
35226;BME280;21813;49.686;21.766;2023-05-08T08:55:12;99541.00;;;6.11;100.00
35226;BME280;21813;49.686;21.766;2023-05-08T08:57:44;99535.41;;;6.20;100.00
35226;BME280;21813;49.686;21.766;2023-05-08T09:00:13;99538.09;;;6.18;100.00
35226;BME280;21813;49.686;21.766;2023-05-08T09:02:40;99545.38;;;6.29;100.00
35226;BME280;21813;49.686;21.766;2023-05-08T09:05:06;99543.53;;;6.33;100.00
35226;BME280;21813;49.686;21.766;2023-05-08T09:07:35;99546.47;;;6.44;100.00
35226;BME280;21813;49.686;21.766;2023-05-08T09:10:04;99547.78;;;6.52;100.00
35226;BME280;21813;49.686;21.766;2023-05-08T09:12:32;99531.44;;;6.52;100.00
35226;BME280;21813;49.686;21.766;2023-05-08T09:14:57;99537.03;;;6.61;100.00
35226;BME280;21813;49.686;21.766;2023-05-08T09:17:23;99528.06;;;6.69;100.00
35226;BME280;21813;49.686;21.766;2023-05-08T09:19:50;99520.31;;;6.69;97.24
35226;BME280;21813;49.686;21.766;2023-05-08T09:22:18;99533.41;;;6.65;97.62
35226;BME280;21813;49.686;21.766;2023-05-08T09:24:54;99536.41;;;6.56;98.46
35226;BME280;21813;49.686;21.766;2023-05-08T09:27:23;99533.94;;;6.53;98.97
35226;BME280;21813;49.686;21.766;2023-05-08T09:29:58;99544.38;;;6.52;99.09
35226;BME280;21813;49.686;21.766;2023-05-08T09:32:27;99530.88;;;6.45;99.64
35226;BME280;21813;49.686;21.766;2023-05-08T09:34:52;99549.38;;;6.56;100.00
35226;BME280;21813;49.686;21.766;2023-05-08T09:37:21;99536.63;;;6.52;100.00
35226;BME280;21813;49.686;21.766;2023-05-08T09:39:47;99541.28;;;6.62;100.00
35226;BME280;21813;49.686;21.766;2023-05-08T09:42:13;99536.75;;;6.68;99.76
35226;BME280;21813;49.686;21.766;2023-05-08T09:44:52;99549.16;;;6.80;97.88
35226;BME280;21813;49.686;21.766;2023-05-08T09:47:20;99554.69;;;6.91;98.91
35226;BME280;21813;49.686;21.766;2023-05-08T09:52:22;99545.00;;;7.13;96.50
35226;BME280;21813;49.686;21.766;2023-05-08T09:54:49;99551.03;;;7.14;94.82
35226;BME280;21813;49.686;21.766;2023-05-08T09:57:20;99543.34;;;7.12;94.99
35226;BME280;21813;49.686;21.766;2023-05-08T09:59:46;99543.47;;;7.09;94.97
35226;BME280;21813;49.686;21.766;2023-05-08T10:02:12;99552.03;;;7.11;94.24
35226;BME280;21813;49.686;21.766;2023-05-08T10:04:40;99551.22;;;7.09;95.05
35226;BME280;21813;49.686;21.766;2023-05-08T10:07:06;99545.31;;;7.07;95.29
35226;BME280;21813;49.686;21.766;2023-05-08T10:09:35;99545.94;;;7.12;96.64
35226;BME280;21813;49.686;21.766;2023-05-08T10:12:02;99549.91;;;7.19;96.50
35226;BME280;21813;49.686;21.766;2023-05-08T10:14:28;99531.28;;;7.11;95.61
35226;BME280;21813;49.686;21.766;2023-05-08T10:16:57;99547.88;;;7.26;95.82
35226;BME280;21813;49.686;21.766;2023-05-08T10:19:24;99546.38;;;7.39;96.07
35226;BME280;21813;49.686;21.766;2023-05-08T10:21:54;99544.78;;;7.53;94.86
35226;BME280;21813;49.686;21.766;2023-05-08T10:24:31;99541.34;;;7.70;93.37
35226;BME280;21813;49.686;21.766;2023-05-08T10:27:16;99542.59;;;7.80;92.39
35226;BME280;21813;49.686;21.766;2023-05-08T10:29:52;99530.53;;;7.79;89.44
35226;BME280;21813;49.686;21.766;2023-05-08T10:32:19;99537.75;;;7.73;89.15
35226;BME280;21813;49.686;21.766;2023-05-08T10:34:48;99533.72;;;7.67;89.79
35226;BME280;21813;49.686;21.766;2023-05-08T10:37:17;99553.09;;;7.77;90.21
35226;BME280;21813;49.686;21.766;2023-05-08T10:39:43;99541.13;;;7.75;89.61
35226;BME280;21813;49.686;21.766;2023-05-08T10:42:12;99547.22;;;7.74;89.83
35226;BME280;21813;49.686;21.766;2023-05-08T10:44:38;99521.13;;;7.60;90.50
35226;BME280;21813;49.686;21.766;2023-05-08T10:47:18;99531.81;;;7.71;89.64
35226;BME280;21813;49.686;21.766;2023-05-08T10:49:54;99541.91;;;7.77;89.81
35226;BME280;21813;49.686;21.766;2023-05-08T10:52:40;99546.09;;;7.79;89.70
35226;BME280;21813;49.686;21.766;2023-05-08T10:55:15;99543.56;;;7.78;89.01
35226;BME280;21813;49.686;21.766;2023-05-08T11:03:23;99530.44;;;7.64;89.82
35226;BME280;21813;49.686;21.766;2023-05-08T11:05:50;99545.63;;;7.71;89.98
35226;BME280;21813;49.686;21.766;2023-05-08T11:08:20;99542.19;;;7.71;90.58
35226;BME280;21813;49.686;21.766;2023-05-08T11:13:33;99542.72;;;7.77;89.89
35226;BME280;21813;49.686;21.766;2023-05-08T11:15:59;99549.50;;;7.97;87.97
35226;BME280;21813;49.686;21.766;2023-05-08T11:18:27;99537.81;;;8.06;87.38
35226;BME280;21813;49.686;21.766;2023-05-08T11:20:55;99529.31;;;8.19;88.24
35226;BME280;21813;49.686;21.766;2023-05-08T11:23:27;99516.47;;;8.51;87.24
35226;BME280;21813;49.686;21.766;2023-05-08T11:26:04;99527.63;;;8.84;85.07
35226;BME280;21813;49.686;21.766;2023-05-08T11:29:01;99516.25;;;8.86;86.08
35226;BME280;21813;49.686;21.766;2023-05-08T11:31:49;99487.22;;;8.94;81.34
35226;BME280;21813;49.686;21.766;2023-05-08T11:37:19;99517.06;;;9.18;81.42
35226;BME280;21813;49.686;21.766;2023-05-08T11:39:49;99498.94;;;9.17;82.11
35226;BME280;21813;49.686;21.766;2023-05-08T11:45:11;99489.28;;;9.19;80.28
35226;BME280;21813;49.686;21.766;2023-05-08T11:47:42;99506.16;;;9.27;79.58
35226;BME280;21813;49.686;21.766;2023-05-08T11:50:11;99515.19;;;9.20;80.23
35226;BME280;21813;49.686;21.766;2023-05-08T11:52:40;99501.63;;;9.00;81.03
35226;BME280;21813;49.686;21.766;2023-05-08T11:55:08;99520.75;;;8.99;81.49
35226;BME280;21813;49.686;21.766;2023-05-08T11:57:34;99510.38;;;8.83;81.81
35226;BME280;21813;49.686;21.766;2023-05-08T12:00:06;99518.31;;;8.80;82.52
35226;BME280;21813;49.686;21.766;2023-05-08T12:02:37;99498.81;;;8.73;83.10
35226;BME280;21813;49.686;21.766;2023-05-08T12:05:05;99517.22;;;8.84;83.99
35226;BME280;21813;49.686;21.766;2023-05-08T12:07:30;99523.78;;;8.91;82.53
35226;BME280;21813;49.686;21.766;2023-05-08T12:10:00;99519.00;;;8.99;82.86
35226;BME280;21813;49.686;21.766;2023-05-08T12:12:38;99518.41;;;9.10;83.45
35226;BME280;21813;49.686;21.766;2023-05-08T12:17:32;99517.06;;;9.18;81.86
35226;BME280;21813;49.686;21.766;2023-05-08T12:20:11;99510.00;;;9.20;80.56
35226;BME280;21813;49.686;21.766;2023-05-08T12:22:38;99509.97;;;9.06;79.31
35226;BME280;21813;49.686;21.766;2023-05-08T12:25:09;99504.16;;;9.01;81.26
35226;BME280;21813;49.686;21.766;2023-05-08T12:27:36;99506.19;;;8.96;80.20
35226;BME280;21813;49.686;21.766;2023-05-08T12:30:08;99509.38;;;9.01;80.38
35226;BME280;21813;49.686;21.766;2023-05-08T12:32:39;99521.50;;;9.16;80.79
35226;BME280;21813;49.686;21.766;2023-05-08T12:35:10;99519.63;;;9.34;79.24
35226;BME280;21813;49.686;21.766;2023-05-08T12:37:36;99512.59;;;9.36;79.83
35226;BME280;21813;49.686;21.766;2023-05-08T12:40:05;99517.34;;;9.44;80.06
35226;BME280;21813;49.686;21.766;2023-05-08T12:42:47;99493.00;;;9.45;77.81
35226;BME280;21813;49.686;21.766;2023-05-08T12:45:23;99531.38;;;9.57;74.78
35226;BME280;21813;49.686;21.766;2023-05-08T12:47:50;99502.72;;;9.57;74.99
35226;BME280;21813;49.686;21.766;2023-05-08T12:50:19;99501.44;;;9.64;74.74
35226;BME280;21813;49.686;21.766;2023-05-08T12:52:46;99505.72;;;9.65;74.68
35226;BME280;21813;49.686;21.766;2023-05-08T12:55:26;99499.50;;;9.67;75.78
35226;BME280;21813;49.686;21.766;2023-05-08T12:58:00;99496.63;;;9.72;75.96
35226;BME280;21813;49.686;21.766;2023-05-08T13:00:41;99492.91;;;9.76;76.71
35226;BME280;21813;49.686;21.766;2023-05-08T13:03:12;99511.88;;;9.78;76.28
35226;BME280;21813;49.686;21.766;2023-05-08T13:05:43;99499.41;;;9.69;75.63
35226;BME280;21813;49.686;21.766;2023-05-08T13:08:10;99493.81;;;9.61;76.52
35226;BME280;21813;49.686;21.766;2023-05-08T13:10:54;99495.09;;;9.54;77.95
35226;BME280;21813;49.686;21.766;2023-05-08T13:13:22;99517.66;;;9.53;78.13
35226;BME280;21813;49.686;21.766;2023-05-08T13:15:50;99492.63;;;9.37;78.76
35226;BME280;21813;49.686;21.766;2023-05-08T13:18:17;99507.47;;;9.35;79.83
35226;BME280;21813;49.686;21.766;2023-05-08T13:20:46;99512.50;;;9.38;79.41
35226;BME280;21813;49.686;21.766;2023-05-08T13:23:13;99490.47;;;9.29;79.26
35226;BME280;21813;49.686;21.766;2023-05-08T13:25:40;99500.41;;;9.37;79.82
35226;BME280;21813;49.686;21.766;2023-05-08T13:28:07;99504.53;;;9.41;80.19
35226;BME280;21813;49.686;21.766;2023-05-08T13:30:36;99495.78;;;9.42;79.74
35226;BME280;21813;49.686;21.766;2023-05-08T13:33:03;99503.41;;;9.45;79.17
35226;BME280;21813;49.686;21.766;2023-05-08T13:35:31;99492.03;;;9.31;78.94
35226;BME280;21813;49.686;21.766;2023-05-08T13:37:57;99503.94;;;9.36;79.18
35226;BME280;21813;49.686;21.766;2023-05-08T13:40:26;99501.41;;;9.34;79.58
35226;BME280;21813;49.686;21.766;2023-05-08T13:42:52;99473.44;;;9.23;79.65
35226;BME280;21813;49.686;21.766;2023-05-08T13:45:33;99495.47;;;9.32;80.54
35226;BME280;21813;49.686;21.766;2023-05-08T13:48:02;99486.31;;;9.25;79.74
35226;BME280;21813;49.686;21.766;2023-05-08T13:50:28;99475.41;;;9.34;79.44
35226;BME280;21813;49.686;21.766;2023-05-08T13:52:55;99470.50;;;9.44;79.68
35226;BME280;21813;49.686;21.766;2023-05-08T13:55:21;99472.31;;;9.57;77.72